sensor_id;sensor_type;location;lat;lon;timestamp;temperature;humidity
53310;DHT22;39197;53.200;5.792;2023-05-10T00:02:03;11.70;99.90
53310;DHT22;39197;53.200;5.792;2023-05-10T00:04:28;11.70;99.90
53310;DHT22;39197;53.200;5.792;2023-05-10T00:06:54;11.70;99.90
53310;DHT22;39197;53.200;5.792;2023-05-10T00:09:20;11.70;99.90
53310;DHT22;39197;53.200;5.792;2023-05-10T00:11:45;11.70;99.90
53310;DHT22;39197;53.200;5.792;2023-05-10T00:14:11;11.70;99.90
53310;DHT22;39197;53.200;5.792;2023-05-10T00:16:37;11.60;99.90
53310;DHT22;39197;53.200;5.792;2023-05-10T00:19:02;11.70;99.90
53310;DHT22;39197;53.200;5.792;2023-05-10T00:21:28;11.60;99.90
53310;DHT22;39197;53.200;5.792;2023-05-10T00:23:54;11.60;99.90
53310;DHT22;39197;53.200;5.792;2023-05-10T00:26:20;11.70;99.90
53310;DHT22;39197;53.200;5.792;2023-05-10T00:28:45;11.70;99.90
53310;DHT22;39197;53.200;5.792;2023-05-10T00:31:11;11.60;99.90
53310;DHT22;39197;53.200;5.792;2023-05-10T00:33:36;11.70;99.90
53310;DHT22;39197;53.200;5.792;2023-05-10T00:36:02;11.60;99.90
53310;DHT22;39197;53.200;5.792;2023-05-10T00:38:28;11.70;99.90
53310;DHT22;39197;53.200;5.792;2023-05-10T00:40:53;11.60;99.90
53310;DHT22;39197;53.200;5.792;2023-05-10T00:43:19;11.60;99.90
53310;DHT22;39197;53.200;5.792;2023-05-10T00:45:45;11.60;99.90
53310;DHT22;39197;53.200;5.792;2023-05-10T00:48:11;11.60;99.90
53310;DHT22;39197;53.200;5.792;2023-05-10T00:50:36;11.70;99.90
53310;DHT22;39197;53.200;5.792;2023-05-10T00:53:02;11.50;99.90
53310;DHT22;39197;53.200;5.792;2023-05-10T00:55:28;11.50;99.90
53310;DHT22;39197;53.200;5.792;2023-05-10T00:57:54;11.50;99.90
53310;DHT22;39197;53.200;5.792;2023-05-10T01:00:21;11.50;99.90
53310;DHT22;39197;53.200;5.792;2023-05-10T01:02:47;11.50;99.90
53310;DHT22;39197;53.200;5.792;2023-05-10T01:05:12;11.40;99.90
53310;DHT22;39197;53.200;5.792;2023-05-10T01:07:39;11.40;99.90
53310;DHT22;39197;53.200;5.792;2023-05-10T01:10:08;11.40;99.90
53310;DHT22;39197;53.200;5.792;2023-05-10T01:12:37;11.40;99.90
53310;DHT22;39197;53.200;5.792;2023-05-10T01:15:05;11.40;99.90
53310;DHT22;39197;53.200;5.792;2023-05-10T01:17:31;11.40;99.90
53310;DHT22;39197;53.200;5.792;2023-05-10T01:19:57;11.50;99.90
53310;DHT22;39197;53.200;5.792;2023-05-10T01:37:02;11.50;99.90
53310;DHT22;39197;53.200;5.792;2023-05-10T01:44:21;11.50;99.90
53310;DHT22;39197;53.200;5.792;2023-05-10T01:46:54;11.50;99.90
53310;DHT22;39197;53.200;5.792;2023-05-10T01:49:36;11.50;99.90
53310;DHT22;39197;53.200;5.792;2023-05-10T01:52:11;11.40;99.90
53310;DHT22;39197;53.200;5.792;2023-05-10T01:54:44;11.50;99.90
53310;DHT22;39197;53.200;5.792;2023-05-10T01:57:13;11.50;99.90
53310;DHT22;39197;53.200;5.792;2023-05-10T01:59:40;11.50;99.90
53310;DHT22;39197;53.200;5.792;2023-05-10T02:02:08;11.50;99.90
53310;DHT22;39197;53.200;5.792;2023-05-10T02:04:39;11.60;99.90
53310;DHT22;39197;53.200;5.792;2023-05-10T02:07:06;11.60;99.90
53310;DHT22;39197;53.200;5.792;2023-05-10T02:09:34;11.60;99.90
53310;DHT22;39197;53.200;5.792;2023-05-10T02:12:01;11.60;99.90
53310;DHT22;39197;53.200;5.792;2023-05-10T02:14:32;11.60;99.90
53310;DHT22;39197;53.200;5.792;2023-05-10T02:17:01;11.60;99.90
53310;DHT22;39197;53.200;5.792;2023-05-10T02:19:28;11.70;99.90
53310;DHT22;39197;53.200;5.792;2023-05-10T02:21:55;11.70;99.90
53310;DHT22;39197;53.200;5.792;2023-05-10T02:24:22;11.60;99.90
53310;DHT22;39197;53.200;5.792;2023-05-10T02:26:51;11.70;99.90
53310;DHT22;39197;53.200;5.792;2023-05-10T02:29:19;11.70;99.90
53310;DHT22;39197;53.200;5.792;2023-05-10T02:31:45;11.60;99.90
53310;DHT22;39197;53.200;5.792;2023-05-10T02:34:12;11.60;99.90
53310;DHT22;39197;53.200;5.792;2023-05-10T02:36:39;11.60;99.90
53310;DHT22;39197;53.200;5.792;2023-05-10T02:39:06;11.60;99.90
53310;DHT22;39197;53.200;5.792;2023-05-10T02:41:36;11.60;99.90
53310;DHT22;39197;53.200;5.792;2023-05-10T02:44:03;11.60;99.90
53310;DHT22;39197;53.200;5.792;2023-05-10T02:46:31;11.60;99.90
53310;DHT22;39197;53.200;5.792;2023-05-10T02:48:56;11.60;99.90
53310;DHT22;39197;53.200;5.792;2023-05-10T02:51:25;11.60;99.90
53310;DHT22;39197;53.200;5.792;2023-05-10T02:53:55;11.60;99.90
53310;DHT22;39197;53.200;5.792;2023-05-10T02:56:29;11.60;99.90
53310;DHT22;39197;53.200;5.792;2023-05-10T02:58:57;11.50;99.90
53310;DHT22;39197;53.200;5.792;2023-05-10T03:01:23;11.50;99.90
53310;DHT22;39197;53.200;5.792;2023-05-10T03:03:48;11.50;99.90
53310;DHT22;39197;53.200;5.792;2023-05-10T03:06:14;11.50;99.90
53310;DHT22;39197;53.200;5.792;2023-05-10T03:08:42;11.40;99.90
53310;DHT22;39197;53.200;5.792;2023-05-10T03:16:46;11.50;99.90
53310;DHT22;39197;53.200;5.792;2023-05-10T03:19:40;11.40;99.90
53310;DHT22;39197;53.200;5.792;2023-05-10T03:22:08;11.40;99.90
53310;DHT22;39197;53.200;5.792;2023-05-10T03:24:35;11.40;99.90
53310;DHT22;39197;53.200;5.792;2023-05-10T03:27:02;11.50;99.90
53310;DHT22;39197;53.200;5.792;2023-05-10T03:29:30;11.40;99.90
53310;DHT22;39197;53.200;5.792;2023-05-10T03:31:58;11.40;99.90
53310;DHT22;39197;53.200;5.792;2023-05-10T03:34:25;11.40;99.90
53310;DHT22;39197;53.200;5.792;2023-05-10T03:36:51;11.40;99.90
53310;DHT22;39197;53.200;5.792;2023-05-10T03:39:16;11.40;99.90
53310;DHT22;39197;53.200;5.792;2023-05-10T03:41:42;11.40;99.90
53310;DHT22;39197;53.200;5.792;2023-05-10T03:44:07;11.40;99.90
53310;DHT22;39197;53.200;5.792;2023-05-10T03:46:33;11.40;99.90
53310;DHT22;39197;53.200;5.792;2023-05-10T03:48:59;11.40;99.90
53310;DHT22;39197;53.200;5.792;2023-05-10T03:51:24;11.40;99.90
53310;DHT22;39197;53.200;5.792;2023-05-10T03:53:54;11.40;99.90
53310;DHT22;39197;53.200;5.792;2023-05-10T03:56:20;11.40;99.90
53310;DHT22;39197;53.200;5.792;2023-05-10T03:58:46;11.30;99.90
53310;DHT22;39197;53.200;5.792;2023-05-10T04:01:12;11.30;99.90
53310;DHT22;39197;53.200;5.792;2023-05-10T04:03:37;11.30;99.90
53310;DHT22;39197;53.200;5.792;2023-05-10T04:06:04;11.30;99.90
53310;DHT22;39197;53.200;5.792;2023-05-10T04:08:31;11.30;99.90
53310;DHT22;39197;53.200;5.792;2023-05-10T04:11:10;11.30;99.90
53310;DHT22;39197;53.200;5.792;2023-05-10T04:13:36;11.30;99.90
53310;DHT22;39197;53.200;5.792;2023-05-10T04:16:02;11.30;99.90
53310;DHT22;39197;53.200;5.792;2023-05-10T04:18:28;11.30;99.90
53310;DHT22;39197;53.200;5.792;2023-05-10T04:20:54;11.40;99.90
53310;DHT22;39197;53.200;5.792;2023-05-10T04:23:19;11.30;99.90
53310;DHT22;39197;53.200;5.792;2023-05-10T04:25:45;11.30;99.90
53310;DHT22;39197;53.200;5.792;2023-05-10T04:28:10;11.30;99.90
53310;DHT22;39197;53.200;5.792;2023-05-10T04:30:36;11.30;99.90
53310;DHT22;39197;53.200;5.792;2023-05-10T04:33:01;11.30;99.90
53310;DHT22;39197;53.200;5.792;2023-05-10T04:35:27;11.30;99.90
53310;DHT22;39197;53.200;5.792;2023-05-10T04:37:53;11.30;99.90
53310;DHT22;39197;53.200;5.792;2023-05-10T04:40:19;11.30;99.90
53310;DHT22;39197;53.200;5.792;2023-05-10T04:42:45;11.30;99.90
53310;DHT22;39197;53.200;5.792;2023-05-10T04:45:12;11.30;99.90
53310;DHT22;39197;53.200;5.792;2023-05-10T04:47:37;11.30;99.90
53310;DHT22;39197;53.200;5.792;2023-05-10T04:50:03;11.30;99.90
53310;DHT22;39197;53.200;5.792;2023-05-10T04:52:29;11.30;99.90
53310;DHT22;39197;53.200;5.792;2023-05-10T04:54:55;11.30;99.90
53310;DHT22;39197;53.200;5.792;2023-05-10T04:57:20;11.30;99.90
53310;DHT22;39197;53.200;5.792;2023-05-10T04:59:46;11.30;99.90
53310;DHT22;39197;53.200;5.792;2023-05-10T05:02:12;11.30;99.90
53310;DHT22;39197;53.200;5.792;2023-05-10T05:04:37;11.30;99.90
53310;DHT22;39197;53.200;5.792;2023-05-10T05:07:03;11.30;99.90
53310;DHT22;39197;53.200;5.792;2023-05-10T05:09:29;11.30;99.90
53310;DHT22;39197;53.200;5.792;2023-05-10T05:11:54;11.30;99.90
53310;DHT22;39197;53.200;5.792;2023-05-10T05:14:20;11.30;99.90
53310;DHT22;39197;53.200;5.792;2023-05-10T05:16:50;11.30;99.90
53310;DHT22;39197;53.200;5.792;2023-05-10T05:19:16;11.40;99.90
53310;DHT22;39197;53.200;5.792;2023-05-10T05:21:42;11.40;99.90
53310;DHT22;39197;53.200;5.792;2023-05-10T05:24:08;11.40;99.90
53310;DHT22;39197;53.200;5.792;2023-05-10T05:26:34;11.40;99.90
53310;DHT22;39197;53.200;5.792;2023-05-10T05:28:59;11.40;99.90
53310;DHT22;39197;53.200;5.792;2023-05-10T05:31:25;11.40;99.90
53310;DHT22;39197;53.200;5.792;2023-05-10T05:33:50;11.40;99.90
53310;DHT22;39197;53.200;5.792;2023-05-10T05:36:16;11.40;99.90
53310;DHT22;39197;53.200;5.792;2023-05-10T05:38:42;11.40;99.90
53310;DHT22;39197;53.200;5.792;2023-05-10T05:41:08;11.40;99.90
53310;DHT22;39197;53.200;5.792;2023-05-10T05:43:33;11.50;99.90
53310;DHT22;39197;53.200;5.792;2023-05-10T05:45:59;11.50;99.90
53310;DHT22;39197;53.200;5.792;2023-05-10T05:48:26;11.50;99.90
53310;DHT22;39197;53.200;5.792;2023-05-10T05:51:01;11.50;99.90
53310;DHT22;39197;53.200;5.792;2023-05-10T05:53:27;11.50;99.90
53310;DHT22;39197;53.200;5.792;2023-05-10T05:55:57;11.50;99.90
53310;DHT22;39197;53.200;5.792;2023-05-10T05:58:24;11.50;99.90
53310;DHT22;39197;53.200;5.792;2023-05-10T06:00:51;11.50;99.90
53310;DHT22;39197;53.200;5.792;2023-05-10T06:03:17;11.60;99.90
53310;DHT22;39197;53.200;5.792;2023-05-10T06:05:43;11.60;99.90
53310;DHT22;39197;53.200;5.792;2023-05-10T06:08:09;11.60;99.90
53310;DHT22;39197;53.200;5.792;2023-05-10T06:10:35;11.70;99.90
53310;DHT22;39197;53.200;5.792;2023-05-10T06:13:01;11.70;99.90
53310;DHT22;39197;53.200;5.792;2023-05-10T06:15:27;11.70;99.90
53310;DHT22;39197;53.200;5.792;2023-05-10T06:17:52;11.70;99.90
53310;DHT22;39197;53.200;5.792;2023-05-10T06:20:18;11.70;99.90
53310;DHT22;39197;53.200;5.792;2023-05-10T06:22:44;11.70;99.90
53310;DHT22;39197;53.200;5.792;2023-05-10T06:25:10;11.70;99.90
53310;DHT22;39197;53.200;5.792;2023-05-10T06:27:35;11.70;99.90
53310;DHT22;39197;53.200;5.792;2023-05-10T06:30:01;11.80;99.90
53310;DHT22;39197;53.200;5.792;2023-05-10T06:32:28;11.80;99.90
53310;DHT22;39197;53.200;5.792;2023-05-10T06:34:53;11.80;99.90
53310;DHT22;39197;53.200;5.792;2023-05-10T06:37:19;11.80;99.90
53310;DHT22;39197;53.200;5.792;2023-05-10T06:39:44;11.80;99.90
53310;DHT22;39197;53.200;5.792;2023-05-10T06:42:10;11.80;99.90
53310;DHT22;39197;53.200;5.792;2023-05-10T06:44:36;11.90;99.90
53310;DHT22;39197;53.200;5.792;2023-05-10T06:47:01;11.90;99.90
53310;DHT22;39197;53.200;5.792;2023-05-10T06:49:27;11.90;99.90
53310;DHT22;39197;53.200;5.792;2023-05-10T06:51:52;12.00;99.90
53310;DHT22;39197;53.200;5.792;2023-05-10T06:54:19;12.00;99.90
53310;DHT22;39197;53.200;5.792;2023-05-10T06:56:44;12.10;99.90
53310;DHT22;39197;53.200;5.792;2023-05-10T06:59:10;12.10;99.90
53310;DHT22;39197;53.200;5.792;2023-05-10T07:01:36;12.00;99.90
53310;DHT22;39197;53.200;5.792;2023-05-10T07:04:01;12.00;99.90
53310;DHT22;39197;53.200;5.792;2023-05-10T07:06:27;12.00;99.90
53310;DHT22;39197;53.200;5.792;2023-05-10T07:08:54;12.00;99.90
53310;DHT22;39197;53.200;5.792;2023-05-10T07:11:19;12.00;99.90
53310;DHT22;39197;53.200;5.792;2023-05-10T07:13:45;12.00;99.90
53310;DHT22;39197;53.200;5.792;2023-05-10T07:16:11;12.00;99.90
53310;DHT22;39197;53.200;5.792;2023-05-10T07:18:37;12.00;99.90
53310;DHT22;39197;53.200;5.792;2023-05-10T07:21:03;12.00;99.90
53310;DHT22;39197;53.200;5.792;2023-05-10T07:23:29;12.10;99.90
53310;DHT22;39197;53.200;5.792;2023-05-10T07:25:55;12.00;99.90
53310;DHT22;39197;53.200;5.792;2023-05-10T07:28:23;12.10;99.90
53310;DHT22;39197;53.200;5.792;2023-05-10T07:30:49;12.10;99.90
53310;DHT22;39197;53.200;5.792;2023-05-10T07:33:16;12.10;99.90
53310;DHT22;39197;53.200;5.792;2023-05-10T07:35:42;12.10;99.90
53310;DHT22;39197;53.200;5.792;2023-05-10T07:38:07;12.20;99.90
53310;DHT22;39197;53.200;5.792;2023-05-10T07:40:33;12.20;99.90
53310;DHT22;39197;53.200;5.792;2023-05-10T07:42:59;12.20;99.90
53310;DHT22;39197;53.200;5.792;2023-05-10T07:45:28;12.30;99.90
53310;DHT22;39197;53.200;5.792;2023-05-10T07:47:54;12.40;99.90
53310;DHT22;39197;53.200;5.792;2023-05-10T07:50:19;12.40;99.90
53310;DHT22;39197;53.200;5.792;2023-05-10T07:52:46;12.50;99.90
53310;DHT22;39197;53.200;5.792;2023-05-10T07:55:12;12.60;99.90
53310;DHT22;39197;53.200;5.792;2023-05-10T07:57:38;12.70;99.90
53310;DHT22;39197;53.200;5.792;2023-05-10T08:00:04;12.70;99.90
53310;DHT22;39197;53.200;5.792;2023-05-10T08:02:30;12.90;99.90
53310;DHT22;39197;53.200;5.792;2023-05-10T08:04:56;12.90;99.90
53310;DHT22;39197;53.200;5.792;2023-05-10T08:07:24;12.90;99.90
53310;DHT22;39197;53.200;5.792;2023-05-10T08:09:49;13.00;99.90
53310;DHT22;39197;53.200;5.792;2023-05-10T08:12:15;13.00;99.90
53310;DHT22;39197;53.200;5.792;2023-05-10T08:14:41;13.00;99.90
53310;DHT22;39197;53.200;5.792;2023-05-10T08:17:06;12.90;99.90
53310;DHT22;39197;53.200;5.792;2023-05-10T08:19:32;12.90;99.90
53310;DHT22;39197;53.200;5.792;2023-05-10T08:21:58;12.90;99.90
53310;DHT22;39197;53.200;5.792;2023-05-10T08:24:23;12.80;99.90
53310;DHT22;39197;53.200;5.792;2023-05-10T08:26:49;12.90;99.90
53310;DHT22;39197;53.200;5.792;2023-05-10T08:29:15;13.00;99.90
53310;DHT22;39197;53.200;5.792;2023-05-10T08:31:40;13.00;99.90
53310;DHT22;39197;53.200;5.792;2023-05-10T08:34:06;12.90;99.90
53310;DHT22;39197;53.200;5.792;2023-05-10T08:36:32;13.00;99.90
53310;DHT22;39197;53.200;5.792;2023-05-10T08:38:58;12.90;99.90
53310;DHT22;39197;53.200;5.792;2023-05-10T08:41:24;12.90;99.90
53310;DHT22;39197;53.200;5.792;2023-05-10T08:43:52;12.90;99.90
53310;DHT22;39197;53.200;5.792;2023-05-10T08:46:19;12.80;99.90
53310;DHT22;39197;53.200;5.792;2023-05-10T08:48:46;12.90;99.90
53310;DHT22;39197;53.200;5.792;2023-05-10T08:51:18;13.00;99.90
53310;DHT22;39197;53.200;5.792;2023-05-10T08:53:45;13.10;99.90
53310;DHT22;39197;53.200;5.792;2023-05-10T08:56:11;13.30;99.90
53310;DHT22;39197;53.200;5.792;2023-05-10T08:58:38;13.40;99.90
53310;DHT22;39197;53.200;5.792;2023-05-10T09:01:04;13.40;99.90
53310;DHT22;39197;53.200;5.792;2023-05-10T09:03:31;13.50;99.90
53310;DHT22;39197;53.200;5.792;2023-05-10T09:05:57;13.60;99.90
53310;DHT22;39197;53.200;5.792;2023-05-10T09:08:24;13.60;99.90
53310;DHT22;39197;53.200;5.792;2023-05-10T09:10:54;13.60;99.90
53310;DHT22;39197;53.200;5.792;2023-05-10T09:13:21;13.70;99.90
53310;DHT22;39197;53.200;5.792;2023-05-10T09:15:47;13.80;99.90
53310;DHT22;39197;53.200;5.792;2023-05-10T09:18:13;13.80;99.90
53310;DHT22;39197;53.200;5.792;2023-05-10T09:20:39;13.70;99.90
53310;DHT22;39197;53.200;5.792;2023-05-10T09:23:05;13.70;99.90
53310;DHT22;39197;53.200;5.792;2023-05-10T09:25:32;13.70;99.90
53310;DHT22;39197;53.200;5.792;2023-05-10T09:28:01;13.60;99.90
53310;DHT22;39197;53.200;5.792;2023-05-10T09:30:31;13.60;99.90
53310;DHT22;39197;53.200;5.792;2023-05-10T09:32:58;13.60;99.90
53310;DHT22;39197;53.200;5.792;2023-05-10T09:35:26;13.60;99.90
53310;DHT22;39197;53.200;5.792;2023-05-10T09:37:53;13.60;99.90
53310;DHT22;39197;53.200;5.792;2023-05-10T09:40:24;13.60;99.90
53310;DHT22;39197;53.200;5.792;2023-05-10T09:43:16;13.60;99.90
53310;DHT22;39197;53.200;5.792;2023-05-10T09:45:42;13.60;99.90
53310;DHT22;39197;53.200;5.792;2023-05-10T09:48:08;13.70;99.90
53310;DHT22;39197;53.200;5.792;2023-05-10T09:50:33;13.70;99.90
53310;DHT22;39197;53.200;5.792;2023-05-10T09:53:03;13.80;99.90
53310;DHT22;39197;53.200;5.792;2023-05-10T09:55:41;13.90;99.90
53310;DHT22;39197;53.200;5.792;2023-05-10T09:58:09;13.80;99.90
53310;DHT22;39197;53.200;5.792;2023-05-10T10:00:40;13.90;99.90
53310;DHT22;39197;53.200;5.792;2023-05-10T10:03:15;14.00;99.90
53310;DHT22;39197;53.200;5.792;2023-05-10T10:05:41;13.90;99.90
53310;DHT22;39197;53.200;5.792;2023-05-10T10:08:10;13.90;99.90
53310;DHT22;39197;53.200;5.792;2023-05-10T10:10:37;13.90;99.90
53310;DHT22;39197;53.200;5.792;2023-05-10T10:13:05;13.80;99.90
53310;DHT22;39197;53.200;5.792;2023-05-10T10:15:33;13.80;99.90
53310;DHT22;39197;53.200;5.792;2023-05-10T10:17:59;13.80;99.90
53310;DHT22;39197;53.200;5.792;2023-05-10T10:20:25;13.90;99.90
53310;DHT22;39197;53.200;5.792;2023-05-10T10:22:51;14.00;99.90
53310;DHT22;39197;53.200;5.792;2023-05-10T10:25:18;14.10;99.90
53310;DHT22;39197;53.200;5.792;2023-05-10T10:35:31;14.40;99.90
53310;DHT22;39197;53.200;5.792;2023-05-10T10:37:57;14.60;99.90
53310;DHT22;39197;53.200;5.792;2023-05-10T10:40:30;14.50;99.90
53310;DHT22;39197;53.200;5.792;2023-05-10T10:42:56;14.70;99.90
53310;DHT22;39197;53.200;5.792;2023-05-10T10:45:23;14.90;99.90
53310;DHT22;39197;53.200;5.792;2023-05-10T10:47:53;15.00;99.90
53310;DHT22;39197;53.200;5.792;2023-05-10T10:50:18;15.30;99.90
53310;DHT22;39197;53.200;5.792;2023-05-10T10:52:45;15.20;99.90
53310;DHT22;39197;53.200;5.792;2023-05-10T10:55:18;15.30;99.90
53310;DHT22;39197;53.200;5.792;2023-05-10T10:57:50;15.30;99.90
53310;DHT22;39197;53.200;5.792;2023-05-10T11:00:24;15.30;99.90
53310;DHT22;39197;53.200;5.792;2023-05-10T11:02:55;15.20;99.90
53310;DHT22;39197;53.200;5.792;2023-05-10T11:05:44;15.20;99.90
53310;DHT22;39197;53.200;5.792;2023-05-10T11:08:30;15.20;99.90
53310;DHT22;39197;53.200;5.792;2023-05-10T11:13:44;15.40;99.90
53310;DHT22;39197;53.200;5.792;2023-05-10T11:19:03;15.10;99.90
53310;DHT22;39197;53.200;5.792;2023-05-10T11:21:30;15.20;99.90
53310;DHT22;39197;53.200;5.792;2023-05-10T11:23:57;15.30;99.90
53310;DHT22;39197;53.200;5.792;2023-05-10T11:26:25;15.40;99.90
53310;DHT22;39197;53.200;5.792;2023-05-10T11:28:53;15.50;99.90
53310;DHT22;39197;53.200;5.792;2023-05-10T11:31:22;15.60;99.90
53310;DHT22;39197;53.200;5.792;2023-05-10T11:33:50;15.50;99.90
53310;DHT22;39197;53.200;5.792;2023-05-10T11:36:18;15.80;99.90
53310;DHT22;39197;53.200;5.792;2023-05-10T11:38:45;15.80;99.90
53310;DHT22;39197;53.200;5.792;2023-05-10T11:41:11;15.90;99.90
53310;DHT22;39197;53.200;5.792;2023-05-10T11:43:41;15.90;99.90
53310;DHT22;39197;53.200;5.792;2023-05-10T11:46:12;15.80;99.90
53310;DHT22;39197;53.200;5.792;2023-05-10T11:48:42;15.80;99.90
53310;DHT22;39197;53.200;5.792;2023-05-10T11:51:08;16.10;99.90
53310;DHT22;39197;53.200;5.792;2023-05-10T11:53:34;16.20;99.90
53310;DHT22;39197;53.200;5.792;2023-05-10T11:56:08;16.40;99.90
53310;DHT22;39197;53.200;5.792;2023-05-10T11:58:36;16.60;99.90
53310;DHT22;39197;53.200;5.792;2023-05-10T12:01:02;16.60;99.90
53310;DHT22;39197;53.200;5.792;2023-05-10T12:03:29;17.00;99.90
53310;DHT22;39197;53.200;5.792;2023-05-10T12:05:55;17.20;99.90
53310;DHT22;39197;53.200;5.792;2023-05-10T12:08:26;17.40;99.90
53310;DHT22;39197;53.200;5.792;2023-05-10T12:10:54;17.40;99.90
53310;DHT22;39197;53.200;5.792;2023-05-10T12:13:29;17.30;99.90
53310;DHT22;39197;53.200;5.792;2023-05-10T12:15:57;17.30;99.90
53310;DHT22;39197;53.200;5.792;2023-05-10T12:18:24;17.40;99.90
53310;DHT22;39197;53.200;5.792;2023-05-10T12:20:52;17.20;99.90
53310;DHT22;39197;53.200;5.792;2023-05-10T12:23:21;16.80;99.90
53310;DHT22;39197;53.200;5.792;2023-05-10T12:25:47;17.00;99.90
53310;DHT22;39197;53.200;5.792;2023-05-10T12:28:12;17.20;99.90
53310;DHT22;39197;53.200;5.792;2023-05-10T12:30:39;17.40;99.90
53310;DHT22;39197;53.200;5.792;2023-05-10T12:33:12;17.70;99.90
53310;DHT22;39197;53.200;5.792;2023-05-10T12:35:49;17.50;99.90
53310;DHT22;39197;53.200;5.792;2023-05-10T12:40:51;17.60;99.90
53310;DHT22;39197;53.200;5.792;2023-05-10T12:43:17;17.50;99.90
53310;DHT22;39197;53.200;5.792;2023-05-10T12:45:42;17.80;99.90
53310;DHT22;39197;53.200;5.792;2023-05-10T12:48:13;18.00;99.90
53310;DHT22;39197;53.200;5.792;2023-05-10T12:50:38;18.00;99.90
53310;DHT22;39197;53.200;5.792;2023-05-10T12:53:04;18.00;99.90
53310;DHT22;39197;53.200;5.792;2023-05-10T12:55:30;17.80;99.90
53310;DHT22;39197;53.200;5.792;2023-05-10T12:57:55;17.60;99.90
53310;DHT22;39197;53.200;5.792;2023-05-10T13:00:21;17.40;99.90
53310;DHT22;39197;53.200;5.792;2023-05-10T13:02:47;17.60;99.90
53310;DHT22;39197;53.200;5.792;2023-05-10T13:05:12;17.80;99.90
53310;DHT22;39197;53.200;5.792;2023-05-10T13:07:38;17.80;99.90
53310;DHT22;39197;53.200;5.792;2023-05-10T13:10:05;18.00;99.90
53310;DHT22;39197;53.200;5.792;2023-05-10T13:12:31;18.10;99.90
53310;DHT22;39197;53.200;5.792;2023-05-10T13:14:57;18.30;99.90
53310;DHT22;39197;53.200;5.792;2023-05-10T13:17:23;18.10;99.90
53310;DHT22;39197;53.200;5.792;2023-05-10T13:19:48;18.00;99.90
53310;DHT22;39197;53.200;5.792;2023-05-10T13:22:14;17.90;99.90
53310;DHT22;39197;53.200;5.792;2023-05-10T13:24:39;17.70;99.90
53310;DHT22;39197;53.200;5.792;2023-05-10T13:27:05;17.50;99.90
53310;DHT22;39197;53.200;5.792;2023-05-10T13:29:31;17.40;99.90
53310;DHT22;39197;53.200;5.792;2023-05-10T13:31:58;17.20;99.90
53310;DHT22;39197;53.200;5.792;2023-05-10T13:34:24;17.40;99.90
53310;DHT22;39197;53.200;5.792;2023-05-10T13:36:50;17.20;99.90
53310;DHT22;39197;53.200;5.792;2023-05-10T13:39:16;17.10;99.90
53310;DHT22;39197;53.200;5.792;2023-05-10T13:41:42;17.40;99.90
53310;DHT22;39197;53.200;5.792;2023-05-10T13:44:07;17.20;99.90
53310;DHT22;39197;53.200;5.792;2023-05-10T13:46:33;17.00;99.90
53310;DHT22;39197;53.200;5.792;2023-05-10T13:48:58;17.10;99.90
53310;DHT22;39197;53.200;5.792;2023-05-10T13:51:24;17.10;99.90
53310;DHT22;39197;53.200;5.792;2023-05-10T13:53:50;17.20;99.90
53310;DHT22;39197;53.200;5.792;2023-05-10T13:56:15;17.00;99.90
53310;DHT22;39197;53.200;5.792;2023-05-10T13:58:41;17.00;99.90
53310;DHT22;39197;53.200;5.792;2023-05-10T14:01:07;17.10;99.90
53310;DHT22;39197;53.200;5.792;2023-05-10T14:03:33;17.00;99.90
53310;DHT22;39197;53.200;5.792;2023-05-10T14:05:58;17.00;99.90
53310;DHT22;39197;53.200;5.792;2023-05-10T14:08:24;17.10;99.90
53310;DHT22;39197;53.200;5.792;2023-05-10T14:10:49;17.40;99.90
53310;DHT22;39197;53.200;5.792;2023-05-10T14:13:16;17.70;99.90
53310;DHT22;39197;53.200;5.792;2023-05-10T14:15:41;18.10;99.90
53310;DHT22;39197;53.200;5.792;2023-05-10T14:18:07;18.00;99.90
53310;DHT22;39197;53.200;5.792;2023-05-10T14:20:32;17.90;99.90
53310;DHT22;39197;53.200;5.792;2023-05-10T14:22:59;17.50;99.90
53310;DHT22;39197;53.200;5.792;2023-05-10T14:25:25;17.70;99.90
53310;DHT22;39197;53.200;5.792;2023-05-10T14:27:51;17.40;99.90
53310;DHT22;39197;53.200;5.792;2023-05-10T14:30:20;17.70;99.90
53310;DHT22;39197;53.200;5.792;2023-05-10T14:32:45;17.90;99.90
53310;DHT22;39197;53.200;5.792;2023-05-10T14:35:11;18.40;99.90
53310;DHT22;39197;53.200;5.792;2023-05-10T14:37:38;18.00;99.90
53310;DHT22;39197;53.200;5.792;2023-05-10T14:40:04;17.50;99.90
53310;DHT22;39197;53.200;5.792;2023-05-10T14:42:30;17.50;99.90
53310;DHT22;39197;53.200;5.792;2023-05-10T14:44:57;17.50;99.90
53310;DHT22;39197;53.200;5.792;2023-05-10T14:47:23;17.70;99.90
53310;DHT22;39197;53.200;5.792;2023-05-10T14:49:49;17.30;99.90
53310;DHT22;39197;53.200;5.792;2023-05-10T14:52:14;17.00;99.90
53310;DHT22;39197;53.200;5.792;2023-05-10T14:54:40;17.10;99.90
53310;DHT22;39197;53.200;5.792;2023-05-10T14:57:06;16.80;99.90
53310;DHT22;39197;53.200;5.792;2023-05-10T14:59:32;16.60;99.90
53310;DHT22;39197;53.200;5.792;2023-05-10T15:01:58;16.70;99.90
53310;DHT22;39197;53.200;5.792;2023-05-10T15:04:24;16.90;99.90
53310;DHT22;39197;53.200;5.792;2023-05-10T15:06:49;16.70;99.90
53310;DHT22;39197;53.200;5.792;2023-05-10T15:09:15;16.40;99.90
53310;DHT22;39197;53.200;5.792;2023-05-10T15:11:41;16.20;99.90
53310;DHT22;39197;53.200;5.792;2023-05-10T15:14:07;16.20;99.90
53310;DHT22;39197;53.200;5.792;2023-05-10T15:16:33;16.50;99.90
53310;DHT22;39197;53.200;5.792;2023-05-10T15:18:58;16.50;99.90
53310;DHT22;39197;53.200;5.792;2023-05-10T15:21:24;16.80;99.90
53310;DHT22;39197;53.200;5.792;2023-05-10T15:23:49;16.60;99.90
53310;DHT22;39197;53.200;5.792;2023-05-10T15:26:15;16.80;99.90
53310;DHT22;39197;53.200;5.792;2023-05-10T15:28:40;16.70;99.90
53310;DHT22;39197;53.200;5.792;2023-05-10T15:31:06;16.80;99.90
53310;DHT22;39197;53.200;5.792;2023-05-10T15:33:32;16.70;99.90
53310;DHT22;39197;53.200;5.792;2023-05-10T15:35:57;16.70;99.90
53310;DHT22;39197;53.200;5.792;2023-05-10T15:38:23;16.70;99.90
53310;DHT22;39197;53.200;5.792;2023-05-10T15:40:49;16.80;99.90
53310;DHT22;39197;53.200;5.792;2023-05-10T15:43:14;16.60;99.90
53310;DHT22;39197;53.200;5.792;2023-05-10T15:45:40;16.60;99.90
53310;DHT22;39197;53.200;5.792;2023-05-10T15:48:06;16.30;99.90
53310;DHT22;39197;53.200;5.792;2023-05-10T15:50:32;16.20;99.90
53310;DHT22;39197;53.200;5.792;2023-05-10T15:52:57;16.50;99.90
53310;DHT22;39197;53.200;5.792;2023-05-10T15:55:23;16.30;99.90
53310;DHT22;39197;53.200;5.792;2023-05-10T15:57:48;16.10;99.90
53310;DHT22;39197;53.200;5.792;2023-05-10T16:00:15;15.90;99.90
53310;DHT22;39197;53.200;5.792;2023-05-10T16:02:40;15.80;99.90
53310;DHT22;39197;53.200;5.792;2023-05-10T16:05:07;15.50;99.90
53310;DHT22;39197;53.200;5.792;2023-05-10T16:07:34;15.40;99.90
53310;DHT22;39197;53.200;5.792;2023-05-10T16:09:59;15.30;99.90